Time;durP1;ratioP1;P1;durP2;ratioP2;P2;SDS_P1;SDS_P2;PMS_P1;PMS_P2;Temp;Humidity;BMP_temperature;BMP_pressure;BME280_temperature;BME280_humidity;BME280_pressure;Samples;Min_cycle;Max_cycle;Signal;HPM_P1;HPM_P2
2022/12/08 00:01:12;;;;;;;;;;;;;;;7.18;nan;100882.06;4999811;28;19921;-31
2022/12/08 00:03:37;;;;;;;;;;;;;;;7.16;nan;100884.13;5002170;28;20420;-31
2022/12/08 00:11:31;;;;;;;;;;;;;;;7.07;nan;100880.97;4999938;28;19932;-31
2022/12/08 00:13:57;;;;;;;;;;;;;;;7.08;nan;100885.25;5004791;28;19926;-31
2022/12/08 00:16:22;;;;;;;;;;;;;;;7.07;nan;100875.63;5004213;28;19977;-31
2022/12/08 00:18:48;;;;;;;;;;;;;;;7.02;nan;100885.34;5003923;28;19929;-32
2022/12/08 00:21:13;;;;;;;;;;;;;;;6.99;nan;100883.91;5001618;28;20368;-31
2022/12/08 00:23:38;;;;;;;;;;;;;;;6.93;nan;100888.28;5002411;28;20469;-30
2022/12/08 00:26:04;;;;;;;;;;;;;;;6.91;nan;100885.00;5005418;28;19925;-31
2022/12/08 00:28:31;;;;;;;;;;;;;;;6.86;nan;100884.06;5002239;28;19923;-31
2022/12/08 00:30:57;;;;;;;;;;;;;;;6.83;nan;100887.16;5003457;28;20008;-30
2022/12/08 00:33:22;;;;;;;;;;;;;;;6.78;nan;100882.47;4998985;28;20023;-31
2022/12/08 00:35:48;;;;;;;;;;;;;;;6.77;nan;100885.34;5001657;28;19917;-31
2022/12/08 00:38:13;;;;;;;;;;;;;;;6.75;nan;100882.91;5004043;28;19917;-30
2022/12/08 00:40:42;;;;;;;;;;;;;;;6.71;nan;100881.72;5004572;28;21743;-31
2022/12/08 00:43:08;;;;;;;;;;;;;;;6.70;nan;100881.94;5002642;28;19944;-31
2022/12/08 00:45:33;;;;;;;;;;;;;;;6.70;nan;100869.44;5000480;28;19917;-31
2022/12/08 00:47:58;;;;;;;;;;;;;;;6.73;nan;100876.19;5001977;28;20141;-30
2022/12/08 00:50:23;;;;;;;;;;;;;;;6.77;nan;100869.38;5007147;28;19924;-31
2022/12/08 00:52:49;;;;;;;;;;;;;;;6.76;nan;100865.09;5008783;28;19917;-31
2022/12/08 00:55:14;;;;;;;;;;;;;;;6.76;nan;100868.56;5007947;28;19957;-30
2022/12/08 00:57:40;;;;;;;;;;;;;;;6.77;nan;100872.03;5004523;28;19921;-31
2022/12/08 01:00:05;;;;;;;;;;;;;;;6.75;nan;100866.94;5006851;28;20377;-31
2022/12/08 01:02:32;;;;;;;;;;;;;;;6.75;nan;100872.25;5006830;28;19933;-30
2022/12/08 01:04:57;;;;;;;;;;;;;;;6.75;nan;100876.78;5006343;28;20524;-30
2022/12/08 01:07:23;;;;;;;;;;;;;;;6.69;nan;100872.34;5005486;28;19921;-30
2022/12/08 01:09:48;;;;;;;;;;;;;;;6.66;nan;100878.91;5006084;28;19921;-31
2022/12/08 01:12:13;;;;;;;;;;;;;;;6.63;nan;100871.34;5005641;28;19937;-30
2022/12/08 01:14:39;;;;;;;;;;;;;;;6.58;nan;100882.66;5007628;28;19925;-31
2022/12/08 01:17:04;;;;;;;;;;;;;;;6.58;nan;100872.00;5006093;28;19995;-31
2022/12/08 01:19:30;;;;;;;;;;;;;;;6.58;nan;100876.53;5008022;28;19917;-31
2022/12/08 01:21:55;;;;;;;;;;;;;;;6.61;nan;100876.06;5006280;28;20016;-30
2022/12/08 01:24:20;;;;;;;;;;;;;;;6.65;nan;100871.97;5004251;28;19944;-31
2022/12/08 01:26:46;;;;;;;;;;;;;;;6.66;nan;100873.59;5008881;28;19957;-30
2022/12/08 01:29:12;;;;;;;;;;;;;;;6.66;nan;100868.28;5006310;28;19928;-30
2022/12/08 01:31:38;;;;;;;;;;;;;;;6.65;nan;100871.97;5006454;28;19917;-30
2022/12/08 01:34:03;;;;;;;;;;;;;;;6.66;nan;100858.44;5004364;28;19923;-31
2022/12/08 01:36:30;;;;;;;;;;;;;;;6.66;nan;100855.78;5003865;28;20393;-31
2022/12/08 01:38:56;;;;;;;;;;;;;;;6.65;nan;100856.81;5007636;28;19917;-31
2022/12/08 01:41:23;;;;;;;;;;;;;;;6.65;nan;100848.00;5005420;28;20137;-30
2022/12/08 01:43:56;;;;;;;;;;;;;;;6.66;nan;100852.28;5007475;28;20401;-30
2022/12/08 01:46:22;;;;;;;;;;;;;;;6.67;nan;100856.59;5004635;28;19928;-31
2022/12/08 01:48:48;;;;;;;;;;;;;;;6.67;nan;100856.59;5005011;28;19922;-30
2022/12/08 01:51:14;;;;;;;;;;;;;;;6.65;nan;100853.34;5007294;28;19917;-30
2022/12/08 01:53:39;;;;;;;;;;;;;;;6.63;nan;100844.72;5006693;28;20181;-31
2022/12/08 01:56:07;;;;;;;;;;;;;;;6.63;nan;100842.06;5006826;28;20541;-30
2022/12/08 01:58:38;;;;;;;;;;;;;;;6.60;nan;100847.81;5004777;28;19965;-30
2022/12/08 02:01:04;;;;;;;;;;;;;;;6.59;nan;100846.19;5005462;28;21307;-31
2022/12/08 02:03:47;;;;;;;;;;;;;;;6.60;nan;100835.34;5005689;28;20300;-30
2022/12/08 02:06:13;;;;;;;;;;;;;;;6.60;nan;100839.84;5004128;28;20390;-30
2022/12/08 02:08:40;;;;;;;;;;;;;;;6.59;nan;100847.00;5006875;28;20029;-30
2022/12/08 02:11:09;;;;;;;;;;;;;;;6.61;nan;100846.78;5004096;28;19928;-31
2022/12/08 02:13:35;;;;;;;;;;;;;;;6.61;nan;100834.28;5004195;28;20348;-30
2022/12/08 02:16:07;;;;;;;;;;;;;;;6.62;nan;100835.09;5006283;28;19924;-30
2022/12/08 02:18:49;;;;;;;;;;;;;;;6.61;nan;100833.47;5006333;28;20377;-30
2022/12/08 02:21:18;;;;;;;;;;;;;;;6.60;nan;100831.84;5007567;28;20288;-31
2022/12/08 02:23:50;;;;;;;;;;;;;;;6.63;nan;100831.41;5001921;28;19929;-30
2022/12/08 02:26:34;;;;;;;;;;;;;;;6.61;nan;100833.47;5006351;28;19918;-31
2022/12/08 02:29:05;;;;;;;;;;;;;;;6.50;nan;100831.56;5006586;28;19928;-30
2022/12/08 02:31:49;;;;;;;;;;;;;;;6.45;nan;100834.03;5004579;28;19917;-30
2022/12/08 02:34:24;;;;;;;;;;;;;;;6.39;nan;100830.41;5005109;28;19979;-31
2022/12/08 02:36:56;;;;;;;;;;;;;;;6.40;nan;100826.72;5004115;28;20423;-31
2022/12/08 02:39:40;;;;;;;;;;;;;;;6.42;nan;100829.97;5006150;28;19982;-31
2022/12/08 02:42:19;;;;;;;;;;;;;;;6.34;nan;100825.75;5003882;28;19984;-31
2022/12/08 02:44:47;;;;;;;;;;;;;;;6.31;nan;100823.53;5007645;28;19918;-30
2022/12/08 02:47:15;;;;;;;;;;;;;;;6.30;nan;100821.09;5002368;28;20113;-31
2022/12/08 02:49:41;;;;;;;;;;;;;;;6.32;nan;100825.16;5004909;28;19921;-30
2022/12/08 02:52:12;;;;;;;;;;;;;;;6.35;nan;100827.38;5004170;28;20400;-30
2022/12/08 02:54:43;;;;;;;;;;;;;;;6.34;nan;100828.41;5006512;28;19952;-30
2022/12/08 02:57:24;;;;;;;;;;;;;;;6.28;nan;100826.63;5005347;28;19921;-30
2022/12/08 03:00:02;;;;;;;;;;;;;;;6.24;nan;100817.44;5001456;28;20328;-30
2022/12/08 03:02:46;;;;;;;;;;;;;;;6.20;nan;100815.44;5005011;28;20266;-30
2022/12/08 03:05:30;;;;;;;;;;;;;;;6.18;nan;100818.31;5004495;28;19921;-30
2022/12/08 03:08:07;;;;;;;;;;;;;;;6.21;nan;100812.56;5005648;28;19921;-30
2022/12/08 03:10:45;;;;;;;;;;;;;;;6.25;nan;100804.94;5005347;28;19928;-30
2022/12/08 03:13:10;;;;;;;;;;;;;;;6.22;nan;100803.53;5005132;28;20305;-31
2022/12/08 03:15:36;;;;;;;;;;;;;;;6.24;nan;100800.66;5005828;28;19923;-30
2022/12/08 03:18:03;;;;;;;;;;;;;;;6.17;nan;100795.41;5004821;28;20017;-30
2022/12/08 03:20:29;;;;;;;;;;;;;;;6.20;nan;100800.28;5005939;28;19921;-30
2022/12/08 03:22:57;;;;;;;;;;;;;;;6.20;nan;100799.47;5001740;28;20020;-30
2022/12/08 03:25:24;;;;;;;;;;;;;;;6.17;nan;100799.91;5000881;28;19926;-30
2022/12/08 03:27:50;;;;;;;;;;;;;;;6.13;nan;100804.03;5005004;28;20020;-30
2022/12/08 03:30:15;;;;;;;;;;;;;;;6.12;nan;100799.75;5005282;28;19924;-30
2022/12/08 03:32:46;;;;;;;;;;;;;;;6.13;nan;100802.19;5004994;28;19921;-30
2022/12/08 03:35:14;;;;;;;;;;;;;;;6.15;nan;100797.47;5001501;28;19921;-30
2022/12/08 03:37:39;;;;;;;;;;;;;;;6.19;nan;100797.84;5003504;28;19925;-30
2022/12/08 03:40:06;;;;;;;;;;;;;;;6.19;nan;100793.34;5005061;28;19937;-30
2022/12/08 03:42:31;;;;;;;;;;;;;;;6.28;nan;100792.03;5004701;28;19929;-31
2022/12/08 03:44:56;;;;;;;;;;;;;;;6.24;nan;100790.81;5002904;28;19921;-31
2022/12/08 03:47:22;;;;;;;;;;;;;;;6.26;nan;100793.25;5000973;28;19948;-30
2022/12/08 03:49:47;;;;;;;;;;;;;;;6.14;nan;100787.88;5005810;28;20011;-30
2022/12/08 03:52:14;;;;;;;;;;;;;;;6.09;nan;100787.69;5003175;28;19918;-31
2022/12/08 03:54:39;;;;;;;;;;;;;;;6.01;nan;100779.97;5005277;28;19992;-30
2022/12/08 03:57:04;;;;;;;;;;;;;;;6.03;nan;100783.25;4999328;28;20412;-30
2022/12/08 03:59:30;;;;;;;;;;;;;;;6.06;nan;100780.13;5003992;28;20512;-30
2022/12/08 04:01:55;;;;;;;;;;;;;;;6.12;nan;100778.47;5003749;28;19933;-30
2022/12/08 04:04:21;;;;;;;;;;;;;;;6.16;nan;100775.16;5004245;28;19921;-31
2022/12/08 04:06:46;;;;;;;;;;;;;;;6.21;nan;100764.66;5003376;28;19917;-30
2022/12/08 04:09:11;;;;;;;;;;;;;;;6.25;nan;100765.03;4997892;28;19917;-31
2022/12/08 04:11:37;;;;;;;;;;;;;;;6.25;nan;100755.19;5004409;28;19925;-30
2022/12/08 04:14:02;;;;;;;;;;;;;;;6.26;nan;100751.50;5004242;28;20392;-30
2022/12/08 04:16:28;;;;;;;;;;;;;;;6.32;nan;100753.31;5003638;28;19917;-30
2022/12/08 04:18:53;;;;;;;;;;;;;;;6.39;nan;100747.91;5001989;28;19918;-31
2022/12/08 04:21:19;;;;;;;;;;;;;;;6.45;nan;100743.53;5015068;23;19933;-31
2022/12/08 04:23:44;;;;;;;;;;;;;;;6.50;nan;100743.72;5005421;28;20008;-32
2022/12/08 04:26:10;;;;;;;;;;;;;;;6.55;nan;100743.84;5005033;28;19933;-32
2022/12/08 04:28:35;;;;;;;;;;;;;;;6.56;nan;100745.50;4999174;28;19925;-32
2022/12/08 04:31:01;;;;;;;;;;;;;;;6.60;nan;100741.34;4999827;28;19956;-32
2022/12/08 04:33:26;;;;;;;;;;;;;;;6.61;nan;100729.66;5001081;28;19925;-32
2022/12/08 04:35:51;;;;;;;;;;;;;;;6.62;nan;100733.94;5001862;28;19917;-32
2022/12/08 04:38:17;;;;;;;;;;;;;;;6.63;nan;100730.25;4999329;28;21603;-32
2022/12/08 04:40:42;;;;;;;;;;;;;;;6.64;nan;100729.19;5003096;28;19925;-32
2022/12/08 04:43:08;;;;;;;;;;;;;;;6.65;nan;100718.34;4999468;28;19932;-32
2022/12/08 04:45:33;;;;;;;;;;;;;;;6.67;nan;100718.13;4998500;28;20176;-32
2022/12/08 04:47:59;;;;;;;;;;;;;;;6.70;nan;100709.69;4997793;28;19924;-32
2022/12/08 04:50:24;;;;;;;;;;;;;;;6.72;nan;100712.94;5004774;28;19917;-32
2022/12/08 04:52:50;;;;;;;;;;;;;;;6.73;nan;100703.09;5003883;28;19917;-31
2022/12/08 04:55:15;;;;;;;;;;;;;;;6.73;nan;100697.78;4999899;28;20300;-32
2022/12/08 04:57:40;;;;;;;;;;;;;;;6.75;nan;100680.53;4997568;28;19925;-32
2022/12/08 05:00:06;;;;;;;;;;;;;;;6.79;nan;100689.69;5002889;28;20335;-32
2022/12/08 05:02:31;;;;;;;;;;;;;;;6.79;nan;100678.22;5000086;28;20278;-32
2022/12/08 05:04:57;;;;;;;;;;;;;;;6.77;nan;100683.78;4999799;28;19936;-32
2022/12/08 05:07:22;;;;;;;;;;;;;;;6.79;nan;100684.38;4999938;28;19929;-32
2022/12/08 05:09:47;;;;;;;;;;;;;;;6.85;nan;100678.16;5003438;28;20008;-31
2022/12/08 05:12:13;;;;;;;;;;;;;;;6.87;nan;100673.44;5001501;28;19937;-31
2022/12/08 05:14:38;;;;;;;;;;;;;;;6.91;nan;100673.78;5003471;28;19944;-32
2022/12/08 05:17:04;;;;;;;;;;;;;;;6.87;nan;100668.09;4998737;28;20801;-32
2022/12/08 05:19:29;;;;;;;;;;;;;;;6.83;nan;100674.91;5001168;28;19922;-32
2022/12/08 05:21:54;;;;;;;;;;;;;;;6.81;nan;100668.16;4998023;28;19933;-32
2022/12/08 05:24:20;;;;;;;;;;;;;;;6.84;nan;100667.75;5001619;28;20347;-32
2022/12/08 05:26:45;;;;;;;;;;;;;;;6.84;nan;100673.88;5001780;28;19931;-32
2022/12/08 05:29:11;;;;;;;;;;;;;;;6.84;nan;100668.56;4999944;28;19966;-33
2022/12/08 05:31:37;;;;;;;;;;;;;;;6.88;nan;100664.41;4997799;28;19954;-31
2022/12/08 05:34:02;;;;;;;;;;;;;;;6.85;nan;100664.84;4997014;28;19925;-32
2022/12/08 05:36:27;;;;;;;;;;;;;;;6.86;nan;100661.16;5001880;28;20585;-32
2022/12/08 05:38:55;;;;;;;;;;;;;;;6.87;nan;100659.28;5003656;28;20285;-31
2022/12/08 05:41:21;;;;;;;;;;;;;;;6.86;nan;100658.50;5002135;28;20023;-32
2022/12/08 05:43:46;;;;;;;;;;;;;;;6.87;nan;100657.44;5003596;28;20440;-32
2022/12/08 05:46:12;;;;;;;;;;;;;;;6.83;nan;100650.13;5002230;28;20004;-31
2022/12/08 05:48:37;;;;;;;;;;;;;;;6.82;nan;100646.66;5002040;28;19971;-31
2022/12/08 05:51:03;;;;;;;;;;;;;;;6.80;nan;100650.56;5004495;28;19917;-32
2022/12/08 05:53:28;;;;;;;;;;;;;;;6.80;nan;100646.06;5003058;28;20396;-32
2022/12/08 05:55:54;;;;;;;;;;;;;;;6.80;nan;100642.56;5003850;28;20003;-32
2022/12/08 05:58:20;;;;;;;;;;;;;;;6.83;nan;100637.63;5000410;28;20012;-32
2022/12/08 06:00:46;;;;;;;;;;;;;;;6.82;nan;100644.00;5004390;28;19972;-31
2022/12/08 06:03:12;;;;;;;;;;;;;;;6.86;nan;100650.50;5002737;28;19925;-32
2022/12/08 06:05:37;;;;;;;;;;;;;;;6.89;nan;100654.56;5003753;28;19925;-32
2022/12/08 06:08:03;;;;;;;;;;;;;;;6.88;nan;100656.41;5003349;28;19963;-31
2022/12/08 06:10:28;;;;;;;;;;;;;;;6.89;nan;100655.38;5000268;28;19957;-33
2022/12/08 06:12:54;;;;;;;;;;;;;;;6.92;nan;100651.44;5003930;28;20007;-32
2022/12/08 06:15:19;;;;;;;;;;;;;;;6.93;nan;100653.88;5001949;28;20301;-32
2022/12/08 06:17:45;;;;;;;;;;;;;;;6.94;nan;100652.84;5001783;28;19917;-31
2022/12/08 06:20:10;;;;;;;;;;;;;;;6.95;nan;100650.97;5002390;28;19917;-31
2022/12/08 06:22:35;;;;;;;;;;;;;;;6.93;nan;100656.53;5004008;28;20158;-33
2022/12/08 06:25:01;;;;;;;;;;;;;;;6.94;nan;100658.16;5001208;28;20008;-32
2022/12/08 06:27:26;;;;;;;;;;;;;;;6.98;nan;100654.00;4996287;28;20399;-32
2022/12/08 06:29:52;;;;;;;;;;;;;;;6.96;nan;100656.06;5001399;28;19967;-32
2022/12/08 06:32:17;;;;;;;;;;;;;;;6.94;nan;100652.03;5003089;28;19917;-32
2022/12/08 06:34:43;;;;;;;;;;;;;;;6.90;nan;100654.31;5000985;28;20250;-32
2022/12/08 06:37:08;;;;;;;;;;;;;;;6.90;nan;100648.19;5000097;28;19925;-32
2022/12/08 06:39:33;;;;;;;;;;;;;;;6.92;nan;100648.78;5001915;28;19918;-33
2022/12/08 06:44:43;;;;;;;;;;;;;;;6.93;nan;100645.06;5000827;28;19971;-32
2022/12/08 06:47:08;;;;;;;;;;;;;;;6.93;nan;100643.22;4996995;28;19929;-32
2022/12/08 06:49:33;;;;;;;;;;;;;;;6.94;nan;100644.84;5000724;28;20392;-32
2022/12/08 06:51:59;;;;;;;;;;;;;;;6.96;nan;100641.94;5001973;28;19929;-35
2022/12/08 06:54:24;;;;;;;;;;;;;;;6.97;nan;100643.56;5002325;28;19960;-32
2022/12/08 06:56:49;;;;;;;;;;;;;;;7.01;nan;100639.44;5001827;28;19949;-31
2022/12/08 06:59:16;;;;;;;;;;;;;;;7.04;nan;100630.19;5003170;28;19917;-32
2022/12/08 07:01:41;;;;;;;;;;;;;;;7.07;nan;100645.69;5001395;28;19961;-32
2022/12/08 07:04:07;;;;;;;;;;;;;;;7.09;nan;100640.94;5001618;28;19958;-32
2022/12/08 07:06:32;;;;;;;;;;;;;;;7.09;nan;100630.28;4999990;28;19918;-32
2022/12/08 07:08:57;;;;;;;;;;;;;;;7.11;nan;100630.88;5000910;28;19921;-32
2022/12/08 07:11:23;;;;;;;;;;;;;;;7.13;nan;100632.28;5003785;28;20442;-31
2022/12/08 07:13:48;;;;;;;;;;;;;;;7.17;nan;100629.97;5002839;28;20292;-32
2022/12/08 07:16:14;;;;;;;;;;;;;;;7.19;nan;100634.03;5002924;28;20332;-32
2022/12/08 07:18:41;;;;;;;;;;;;;;;7.22;nan;100638.09;5002654;28;19964;-31
2022/12/08 07:21:08;;;;;;;;;;;;;;;7.24;nan;100633.34;5004986;28;20024;-32
2022/12/08 07:23:33;;;;;;;;;;;;;;;7.30;nan;100629.75;5005221;28;19938;-33
2022/12/08 07:26:00;;;;;;;;;;;;;;;7.33;nan;100637.28;5003242;28;20344;-32
2022/12/08 07:28:26;;;;;;;;;;;;;;;7.36;nan;100636.00;5001953;28;19924;-31
2022/12/08 07:30:51;;;;;;;;;;;;;;;7.38;nan;100640.09;5000353;28;19925;-32
2022/12/08 07:33:16;;;;;;;;;;;;;;;7.41;nan;100644.16;5005501;28;20009;-32
2022/12/08 07:35:42;;;;;;;;;;;;;;;7.46;nan;100641.59;5005717;28;19918;-32
2022/12/08 07:38:09;;;;;;;;;;;;;;;7.50;nan;100640.91;5007615;28;19924;-32
2022/12/08 07:40:35;;;;;;;;;;;;;;;7.51;nan;100639.06;5002286;28;19917;-32
2022/12/08 07:43:00;;;;;;;;;;;;;;;7.52;nan;100646.81;5001260;28;20020;-32
2022/12/08 07:45:26;;;;;;;;;;;;;;;7.52;nan;100646.81;5000283;28;20016;-32
2022/12/08 07:47:51;;;;;;;;;;;;;;;7.53;nan;100634.31;5003467;28;20009;-32
2022/12/08 07:50:16;;;;;;;;;;;;;;;7.56;nan;100621.34;5006756;28;20040;-32
2022/12/08 07:52:42;;;;;;;;;;;;;;;7.62;nan;100627.59;5006728;28;19917;-32
2022/12/08 07:55:07;;;;;;;;;;;;;;;7.67;nan;100630.38;5006667;28;19939;-32
2022/12/08 07:57:33;;;;;;;;;;;;;;;7.74;nan;100633.75;5004626;28;20000;-32
2022/12/08 07:59:58;;;;;;;;;;;;;;;7.78;nan;100636.78;5000495;28;19918;-32
2022/12/08 08:02:23;;;;;;;;;;;;;;;7.79;nan;100633.06;5006792;28;19953;-32
2022/12/08 08:04:49;;;;;;;;;;;;;;;7.79;nan;100633.88;5002401;28;19918;-32
2022/12/08 08:07:15;;;;;;;;;;;;;;;7.82;nan;100633.41;5002546;28;19924;-32
2022/12/08 08:09:40;;;;;;;;;;;;;;;7.79;nan;100639.19;5003289;28;19925;-32
2022/12/08 08:12:05;;;;;;;;;;;;;;;7.77;nan;100638.63;5000531;28;19964;-32
2022/12/08 08:14:31;;;;;;;;;;;;;;;7.76;nan;100636.19;5006650;28;19924;-32
2022/12/08 08:16:56;;;;;;;;;;;;;;;7.72;nan;100632.34;5000395;28;20066;-32
2022/12/08 08:19:21;;;;;;;;;;;;;;;7.62;nan;100629.47;5005290;28;19929;-32
2022/12/08 08:21:47;;;;;;;;;;;;;;;7.60;nan;100628.88;5003916;28;20017;-32
2022/12/08 08:24:12;;;;;;;;;;;;;;;7.60;nan;100635.03;5007007;28;19975;-32
2022/12/08 08:26:37;;;;;;;;;;;;;;;7.54;nan;100625.25;5002464;28;20023;-32
2022/12/08 08:29:03;;;;;;;;;;;;;;;7.52;nan;100625.50;5002966;28;19917;-32
2022/12/08 08:31:28;;;;;;;;;;;;;;;7.54;nan;100630.59;5003079;28;19918;-32
2022/12/08 08:33:55;;;;;;;;;;;;;;;7.58;nan;100632.59;5001397;28;19925;-31
2022/12/08 08:36:21;;;;;;;;;;;;;;;7.58;nan;100629.13;5002207;28;19960;-31
2022/12/08 08:38:46;;;;;;;;;;;;;;;7.62;nan;100632.13;5001938;28;19948;-31
2022/12/08 08:41:12;;;;;;;;;;;;;;;7.68;nan;100634.66;5007090;28;19968;-32
2022/12/08 08:43:37;;;;;;;;;;;;;;;7.77;nan;100632.47;5000757;28;19965;-32
2022/12/08 08:46:03;;;;;;;;;;;;;;;7.81;nan;100630.97;5000098;28;19918;-32
2022/12/08 08:48:29;;;;;;;;;;;;;;;7.85;nan;100637.44;5001300;28;20141;-32
2022/12/08 08:50:55;;;;;;;;;;;;;;;7.84;nan;100641.16;5000916;28;19925;-33
2022/12/08 08:53:21;;;;;;;;;;;;;;;7.88;nan;100628.97;5002146;28;19948;-32
2022/12/08 08:55:46;;;;;;;;;;;;;;;7.92;nan;100627.50;5000504;28;19972;-32
2022/12/08 08:58:11;;;;;;;;;;;;;;;7.91;nan;100625.88;5006211;28;20028;-32
2022/12/08 09:00:37;;;;;;;;;;;;;;;7.91;nan;100628.53;5005064;28;20549;-32
2022/12/08 09:03:02;;;;;;;;;;;;;;;7.92;nan;100632.81;5001079;28;20250;-32
2022/12/08 09:05:28;;;;;;;;;;;;;;;7.94;nan;100636.06;5003739;28;19917;-32
2022/12/08 09:07:53;;;;;;;;;;;;;;;7.96;nan;100622.50;5000949;28;19929;-32
2022/12/08 09:10:18;;;;;;;;;;;;;;;7.96;nan;100631.31;5000684;28;19921;-32
2022/12/08 09:12:44;;;;;;;;;;;;;;;8.00;nan;100632.47;5006225;28;20012;-31
2022/12/08 09:15:09;;;;;;;;;;;;;;;7.99;nan;100630.03;5004973;28;19924;-32
2022/12/08 09:17:35;;;;;;;;;;;;;;;7.99;nan;100619.34;5007902;28;19926;-32
2022/12/08 09:20:00;;;;;;;;;;;;;;;7.95;nan;100619.00;5005953;28;19925;-32
2022/12/08 09:22:26;;;;;;;;;;;;;;;7.96;nan;100617.16;5005624;28;19922;-32
2022/12/08 09:24:51;;;;;;;;;;;;;;;7.94;nan;100625.41;5003779;28;20306;-31
2022/12/08 09:27:16;;;;;;;;;;;;;;;7.95;nan;100611.00;4999269;28;19953;-32
2022/12/08 09:29:42;;;;;;;;;;;;;;;7.98;nan;100607.88;5006954;28;19975;-32
2022/12/08 09:32:07;;;;;;;;;;;;;;;7.89;nan;100595.91;5001094;28;19917;-32
2022/12/08 09:34:32;;;;;;;;;;;;;;;7.94;nan;100597.91;5007053;28;19979;-33
2022/12/08 09:36:58;;;;;;;;;;;;;;;8.00;nan;100600.44;5009397;28;19918;-32
2022/12/08 09:39:23;;;;;;;;;;;;;;;7.98;nan;100599.06;5005236;28;20008;-32
2022/12/08 09:41:49;;;;;;;;;;;;;;;8.02;nan;100600.19;5005371;28;19940;-32
2022/12/08 09:44:24;;;;;;;;;;;;;;;8.03;nan;100594.63;5007708;28;19917;-32
2022/12/08 09:46:51;;;;;;;;;;;;;;;8.04;nan;100590.91;5003428;28;19967;-32
2022/12/08 09:49:18;;;;;;;;;;;;;;;8.04;nan;100590.91;5006315;28;19993;-33
2022/12/08 09:51:44;;;;;;;;;;;;;;;8.03;nan;100585.81;5004159;28;19970;-33
2022/12/08 09:54:29;;;;;;;;;;;;;;;8.05;nan;100587.19;5005918;28;20012;-32
2022/12/08 09:56:57;;;;;;;;;;;;;;;7.98;nan;100589.19;5006663;28;20004;-32
2022/12/08 09:59:26;;;;;;;;;;;;;;;7.95;nan;100579.00;5006248;28;19921;-33
2022/12/08 10:01:51;;;;;;;;;;;;;;;7.93;nan;100569.63;5003687;28;20352;-32
2022/12/08 10:04:24;;;;;;;;;;;;;;;7.99;nan;100582.81;5006145;28;19921;-33
2022/12/08 10:06:56;;;;;;;;;;;;;;;8.02;nan;100569.00;5007576;28;19924;-33
2022/12/08 10:09:28;;;;;;;;;;;;;;;8.00;nan;100571.09;5006856;28;20460;-33
2022/12/08 10:11:59;;;;;;;;;;;;;;;8.02;nan;100569.00;5008826;28;20060;-33
2022/12/08 10:14:37;;;;;;;;;;;;;;;8.02;nan;100569.00;5006956;28;19917;-32
2022/12/08 10:17:08;;;;;;;;;;;;;;;8.03;nan;100575.94;4998431;28;20356;-32
2022/12/08 10:19:34;;;;;;;;;;;;;;;8.05;nan;100568.53;5012790;23;20348;-85
2022/12/08 10:22:00;;;;;;;;;;;;;;;8.03;nan;100569.81;5011925;28;19933;-85
2022/12/08 10:24:26;;;;;;;;;;;;;;;8.04;nan;100571.44;5012623;28;19924;-85
2022/12/08 10:26:52;;;;;;;;;;;;;;;8.06;nan;100570.13;5014330;28;19921;-86
2022/12/08 10:29:18;;;;;;;;;;;;;;;8.03;nan;100561.81;5014661;28;19986;-86
2022/12/08 10:31:43;;;;;;;;;;;;;;;8.08;nan;100565.41;5013529;28;20469;-86
2022/12/08 10:34:15;;;;;;;;;;;;;;;8.02;nan;100566.34;5015727;28;20380;-86
2022/12/08 10:36:45;;;;;;;;;;;;;;;8.00;nan;100555.09;5013606;28;19924;-85
2022/12/08 10:39:40;;;;;;;;;;;;;;;7.96;nan;100553.94;5004071;28;19917;-86
2022/12/08 10:42:14;;;;;;;;;;;;;;;7.97;nan;100566.22;5002028;28;19922;-86
2022/12/08 10:44:54;;;;;;;;;;;;;;;8.04;nan;100553.56;5013825;28;19924;-84
2022/12/08 10:47:20;;;;;;;;;;;;;;;8.03;nan;100545.78;5015936;28;20340;-85
2022/12/08 10:49:46;;;;;;;;;;;;;;;8.09;nan;100547.53;5012430;28;19961;-85
2022/12/08 10:52:22;;;;;;;;;;;;;;;8.11;nan;100546.25;5011661;28;19955;-85
2022/12/08 10:54:51;;;;;;;;;;;;;;;8.13;nan;100538.81;5013223;28;19921;-86
2022/12/08 10:57:20;;;;;;;;;;;;;;;8.18;nan;100540.75;5003299;28;20192;-86
2022/12/08 10:59:45;;;;;;;;;;;;;;;8.19;nan;100537.84;5012237;28;19939;-86
2022/12/08 11:02:17;;;;;;;;;;;;;;;8.25;nan;100541.44;5013817;28;20444;-87
2022/12/08 11:04:42;;;;;;;;;;;;;;;8.33;nan;100538.41;5013334;28;19924;-86
2022/12/08 11:07:10;;;;;;;;;;;;;;;8.39;nan;100542.00;5017993;28;20367;-87
2022/12/08 11:09:47;;;;;;;;;;;;;;;8.45;nan;100536.53;5012590;28;19928;-86
2022/12/08 11:12:16;;;;;;;;;;;;;;;8.48;nan;100537.91;5013360;28;19923;-87
2022/12/08 11:14:42;;;;;;;;;;;;;;;8.53;nan;100543.34;5015160;28;19968;-86
2022/12/08 11:17:10;;;;;;;;;;;;;;;8.59;nan;100544.22;5018755;28;20423;-86
2022/12/08 11:19:40;;;;;;;;;;;;;;;8.66;nan;100536.91;5015121;28;20380;-87
2022/12/08 11:22:23;;;;;;;;;;;;;;;8.66;nan;100542.25;5015532;28;19929;-86
2022/12/08 11:24:58;;;;;;;;;;;;;;;8.68;nan;100540.13;5014283;28;20015;-86
2022/12/08 11:27:24;;;;;;;;;;;;;;;8.70;nan;100533.50;5011640;28;19921;-86
2022/12/08 11:29:50;;;;;;;;;;;;;;;8.75;nan;100535.44;5012685;28;19917;-87
2022/12/08 11:32:15;;;;;;;;;;;;;;;8.77;nan;100539.47;5012008;28;20300;-86
2022/12/08 11:34:44;;;;;;;;;;;;;;;8.76;nan;100543.22;5012970;28;20177;-87
2022/12/08 11:37:30;;;;;;;;;;;;;;;8.79;nan;100545.38;5014921;28;19957;-89
2022/12/08 11:39:59;;;;;;;;;;;;;;;8.79;nan;100548.06;5011518;28;19925;-87
2022/12/08 11:42:30;;;;;;;;;;;;;;;8.82;nan;100544.13;5010165;28;20289;-86
2022/12/08 11:45:02;;;;;;;;;;;;;;;8.89;nan;100544.78;5014331;28;19978;-86
2022/12/08 11:47:35;;;;;;;;;;;;;;;8.78;nan;100541.09;5009240;28;20305;-88
2022/12/08 11:50:16;;;;;;;;;;;;;;;8.81;nan;100537.16;5010284;28;19921;-86
2022/12/08 11:52:44;;;;;;;;;;;;;;;8.84;nan;100543.88;5012131;28;19917;-85
2022/12/08 11:55:19;;;;;;;;;;;;;;;8.79;nan;100536.56;5010741;28;19932;-85
2022/12/08 11:57:44;;;;;;;;;;;;;;;8.80;nan;100538.22;5008650;28;19952;-85
2022/12/08 12:00:12;;;;;;;;;;;;;;;8.82;nan;100532.63;5009417;28;19921;-85
2022/12/08 12:02:42;;;;;;;;;;;;;;;8.87;nan;100543.41;5012776;28;19921;-86
2022/12/08 12:05:09;;;;;;;;;;;;;;;8.84;nan;100535.88;5011249;28;19960;-86
2022/12/08 12:07:38;;;;;;;;;;;;;;;8.82;nan;100538.78;5010551;28;19922;-85
2022/12/08 12:10:23;;;;;;;;;;;;;;;8.84;nan;100539.34;5007816;28;20091;-85
2022/12/08 12:12:48;;;;;;;;;;;;;;;8.82;nan;100540.66;5010945;28;19925;-86
2022/12/08 12:15:14;;;;;;;;;;;;;;;8.87;nan;100546.88;5015359;28;19929;-86
2022/12/08 12:17:43;;;;;;;;;;;;;;;8.92;nan;100541.59;5012188;28;20056;-85
2022/12/08 12:20:27;;;;;;;;;;;;;;;8.93;nan;100537.06;5007821;28;19926;-85
2022/12/08 12:23:04;;;;;;;;;;;;;;;8.94;nan;100536.03;5009506;28;20512;-85
2022/12/08 12:25:31;;;;;;;;;;;;;;;8.97;nan;100538.19;5007791;28;20322;-85
2022/12/08 12:28:01;;;;;;;;;;;;;;;9.03;nan;100534.59;5012403;28;20352;-85
2022/12/08 12:30:27;;;;;;;;;;;;;;;9.07;nan;100538.38;5012537;28;19917;-85
2022/12/08 12:32:58;;;;;;;;;;;;;;;9.14;nan;100531.00;5009499;28;19972;-85
2022/12/08 12:35:43;;;;;;;;;;;;;;;9.12;nan;100529.63;5010642;28;19945;-86
2022/12/08 12:41:09;;;;;;;;;;;;;;;9.23;nan;100532.22;5014314;28;19974;-86
2022/12/08 12:43:35;;;;;;;;;;;;;;;9.22;nan;100533.28;5011662;28;20274;-84
2022/12/08 12:46:36;;;;;;;;;;;;;;;9.26;nan;100522.91;5011405;28;20153;-85
2022/12/08 12:49:20;;;;;;;;;;;;;;;9.28;nan;100529.63;4950821;28;19922;-87
2022/12/08 12:51:46;;;;;;;;;;;;;;;9.23;nan;100531.41;5006045;28;19998;-87
2022/12/08 12:54:21;;;;;;;;;;;;;;;9.22;nan;100530.59;5012873;28;19922;-85
2022/12/08 12:56:48;;;;;;;;;;;;;;;9.27;nan;100532.53;5012598;28;19952;-86
2022/12/08 12:59:21;;;;;;;;;;;;;;;9.31;nan;100537.16;5017503;28;19925;-85
2022/12/08 13:01:52;;;;;;;;;;;;;;;9.32;nan;100533.41;5017113;28;19917;-85
2022/12/08 13:04:18;;;;;;;;;;;;;;;9.28;nan;100534.97;5017736;28;19925;-85
2022/12/08 13:06:45;;;;;;;;;;;;;;;9.29;nan;100535.78;5002706;28;20336;-85
2022/12/08 13:09:19;;;;;;;;;;;;;;;9.32;nan;100529.94;5011170;28;19921;-86
2022/12/08 13:11:47;;;;;;;;;;;;;;;9.32;nan;100538.75;5009743;28;20199;-85
2022/12/08 13:14:25;;;;;;;;;;;;;;;9.33;nan;100536.91;5003245;28;19921;-85
2022/12/08 13:16:53;;;;;;;;;;;;;;;9.34;nan;100533.19;5002076;28;19921;-85
2022/12/08 13:19:20;;;;;;;;;;;;;;;9.36;nan;100526.53;5013763;28;20351;-84
2022/12/08 13:21:45;;;;;;;;;;;;;;;9.41;nan;100528.47;5010658;28;19967;-85